createdAt,value
2022-12-11T00:02:42.989Z,4.80
2022-12-11T00:06:44.735Z,3.90
2022-12-11T00:10:50.022Z,4.30
2022-12-11T00:14:52.227Z,5.00
2022-12-11T00:18:54.190Z,5.10
2022-12-11T00:22:55.805Z,5.40
2022-12-11T00:26:57.491Z,5.30
2022-12-11T00:30:59.253Z,4.80
2022-12-11T00:35:02.275Z,4.10
2022-12-11T00:39:04.940Z,4.50
2022-12-11T00:43:06.614Z,3.50
2022-12-11T00:47:08.475Z,4.50
2022-12-11T00:51:10.819Z,4.70
2022-12-11T00:55:13.551Z,5.20
2022-12-11T00:59:15.163Z,5.50
2022-12-11T01:03:17.667Z,5.70
2022-12-11T01:07:19.320Z,5.40
2022-12-11T01:11:21.484Z,5.80
2022-12-11T01:15:25.324Z,6.00
2022-12-11T01:19:26.947Z,5.90
2022-12-11T01:23:28.606Z,6.10
2022-12-11T01:27:30.346Z,6.20
2022-12-11T01:31:32.004Z,6.30
2022-12-11T01:35:33.943Z,6.30
2022-12-11T01:39:38.400Z,6.40
2022-12-11T01:44:03.862Z,6.40
2022-12-11T01:48:05.662Z,6.30
2022-12-11T01:52:21.154Z,6.40
2022-12-11T01:56:23.313Z,6.50
2022-12-11T02:00:25.003Z,6.60
2022-12-11T02:04:27.875Z,6.50
2022-12-11T02:08:29.868Z,6.50
2022-12-11T02:13:00.081Z,6.50
2022-12-11T02:17:25.015Z,6.40
2022-12-11T02:21:32.904Z,6.40
2022-12-11T02:26:01.725Z,6.40
2022-12-11T02:30:13.862Z,6.30
2022-12-11T02:34:22.892Z,6.40
2022-12-11T02:38:33.781Z,6.40
2022-12-11T02:42:37.479Z,6.40
2022-12-11T02:46:40.160Z,5.90
2022-12-11T02:50:48.836Z,4.60
2022-12-11T02:54:53.420Z,4.80
2022-12-11T02:59:06.723Z,4.70
2022-12-11T03:03:08.446Z,5.30
2022-12-11T03:07:15.808Z,5.60
2022-12-11T03:11:17.610Z,5.80
2022-12-11T03:15:21.857Z,6.00
2022-12-11T03:19:37.099Z,6.10
2022-12-11T03:23:41.972Z,6.00
2022-12-11T03:28:09.448Z,5.90
2022-12-11T03:32:16.261Z,5.80
2022-12-11T03:36:23.944Z,5.50
2022-12-11T03:40:28.617Z,5.70
2022-12-11T03:44:33.496Z,6.00
2022-12-11T03:48:37.951Z,6.00
2022-12-11T03:52:45.847Z,6.00
2022-12-11T03:56:51.056Z,6.00
2022-12-11T04:00:52.776Z,5.90
2022-12-11T04:04:54.513Z,6.00
2022-12-11T04:08:56.297Z,6.10
2022-12-11T04:12:57.970Z,6.10
2022-12-11T04:17:00.694Z,6.00
2022-12-11T04:21:20.756Z,5.90
2022-12-11T04:25:22.389Z,5.20
2022-12-11T04:29:24.034Z,5.00
2022-12-11T04:33:25.684Z,5.10
2022-12-11T04:37:28.350Z,5.30
2022-12-11T04:41:30.034Z,5.40
2022-12-11T04:45:31.673Z,5.40
2022-12-11T04:49:33.357Z,5.40
2022-12-11T04:53:35.622Z,5.30
2022-12-11T04:57:37.728Z,5.30
2022-12-11T05:01:39.407Z,5.40
2022-12-11T05:05:41.233Z,5.40
2022-12-11T05:09:42.894Z,5.10
2022-12-11T05:13:45.311Z,4.90
2022-12-11T05:17:46.985Z,4.90
2022-12-11T05:21:48.688Z,4.70
2022-12-11T05:25:57.592Z,4.50
2022-12-11T05:29:59.826Z,4.20
2022-12-11T05:34:01.662Z,4.40
2022-12-11T05:38:03.563Z,4.50
2022-12-11T05:42:05.320Z,4.30
2022-12-11T05:46:08.201Z,3.90
2022-12-11T05:50:10.875Z,4.00
2022-12-11T05:54:12.575Z,4.20
2022-12-11T05:58:14.234Z,3.60
2022-12-11T06:02:16.059Z,3.40
2022-12-11T06:06:17.843Z,4.00
2022-12-11T06:10:19.497Z,4.40
2022-12-11T06:14:21.134Z,4.50
2022-12-11T06:18:22.804Z,4.40
2022-12-11T06:22:24.579Z,4.70
2022-12-11T06:26:27.103Z,4.50
2022-12-11T06:30:38.404Z,4.50
2022-12-11T06:34:41.226Z,4.60
2022-12-11T06:38:43.438Z,4.70
2022-12-11T06:42:45.169Z,4.70
2022-12-11T06:46:46.824Z,4.70
2022-12-11T06:50:48.476Z,4.70
2022-12-11T06:54:50.435Z,4.70
2022-12-11T06:58:52.310Z,4.80
2022-12-11T07:02:54.423Z,4.60
2022-12-11T07:06:56.766Z,4.60
2022-12-11T07:11:10.236Z,4.50
2022-12-11T07:15:12.323Z,4.30
2022-12-11T07:19:14.339Z,4.40
2022-12-11T07:23:16.060Z,4.30
2022-12-11T07:27:17.778Z,4.30
2022-12-11T07:31:22.947Z,4.40
2022-12-11T07:35:25.248Z,4.30
2022-12-11T07:39:26.967Z,3.60
2022-12-11T07:43:29.175Z,3.80
2022-12-11T07:47:30.828Z,3.90
2022-12-11T07:51:37.255Z,4.20
2022-12-11T07:55:38.898Z,4.40
2022-12-11T07:59:41.623Z,4.50
2022-12-11T08:03:43.755Z,4.70
2022-12-11T08:07:45.539Z,4.60
2022-12-11T08:11:49.356Z,4.50
2022-12-11T08:15:51.290Z,4.70
2022-12-11T08:19:53.027Z,4.80
2022-12-11T08:23:55.173Z,4.80
2022-12-11T08:27:56.818Z,5.00
2022-12-11T08:31:58.477Z,5.10
2022-12-11T08:36:07.037Z,5.20
2022-12-11T08:40:10.787Z,5.20
2022-12-11T08:44:16.618Z,5.20
2022-12-11T08:48:18.648Z,4.90
2022-12-11T08:52:20.360Z,4.70
2022-12-11T08:56:23.652Z,4.70
2022-12-11T09:00:25.327Z,4.70
2022-12-11T09:04:27.155Z,4.70
2022-12-11T09:08:29.457Z,4.80
2022-12-11T09:12:31.179Z,4.80
2022-12-11T09:16:33.771Z,4.80
2022-12-11T09:20:35.536Z,4.30
2022-12-11T09:24:37.825Z,3.60
2022-12-11T09:28:45.710Z,3.70
2022-12-11T09:32:48.114Z,4.20
2022-12-11T09:36:49.849Z,4.60
2022-12-11T09:40:51.883Z,4.70
2022-12-11T09:44:58.312Z,4.30
2022-12-11T09:49:01.922Z,4.50
2022-12-11T09:53:12.512Z,5.00
2022-12-11T09:57:37.737Z,5.40
2022-12-11T10:01:48.004Z,5.30
2022-12-11T10:06:04.940Z,4.90
2022-12-11T10:10:41.562Z,4.90
2022-12-11T10:15:13.408Z,5.00
2022-12-11T10:19:22.045Z,4.20
2022-12-11T10:23:30.616Z,4.50
2022-12-11T10:27:39.729Z,4.50
2022-12-11T10:31:56.942Z,4.60
2022-12-11T10:35:58.839Z,4.90
2022-12-11T10:40:00.534Z,5.30
2022-12-11T10:44:16.576Z,5.20
2022-12-11T10:48:18.475Z,5.30
2022-12-11T10:52:29.570Z,5.30
2022-12-11T10:56:33.381Z,5.60
2022-12-11T11:00:42.359Z,5.80
2022-12-11T11:04:44.912Z,6.00
2022-12-11T11:08:55.931Z,4.90
2022-12-11T11:13:01.760Z,4.90
2022-12-11T11:17:03.416Z,5.30
2022-12-11T11:21:05.557Z,5.50
2022-12-11T11:25:20.405Z,5.60
2022-12-11T11:29:33.072Z,5.70
2022-12-11T11:33:36.877Z,5.80
2022-12-11T11:37:40.948Z,6.10
2022-12-11T11:42:08.706Z,6.20
2022-12-11T11:46:16.424Z,6.30
2022-12-11T11:50:22.217Z,6.30
2022-12-11T11:54:42.885Z,6.10
2022-12-11T11:59:06.605Z,5.40
2022-12-11T12:03:13.907Z,5.90
2022-12-11T12:07:51.346Z,5.40
2022-12-11T12:12:00.376Z,5.00
2022-12-11T12:16:02.368Z,5.50
2022-12-11T12:20:15.896Z,4.20
2022-12-11T12:24:37.530Z,4.80
2022-12-11T12:29:19.103Z,5.40
2022-12-11T12:33:40.743Z,5.50
2022-12-11T12:38:09.410Z,5.30
2022-12-11T12:42:41.692Z,4.90
2022-12-11T12:47:08.165Z,5.40
2022-12-11T12:51:14.492Z,5.60
2022-12-11T12:55:24.242Z,5.40
2022-12-11T12:59:28.704Z,5.80
2022-12-11T13:03:32.986Z,5.60
2022-12-11T13:07:34.812Z,5.70
2022-12-11T13:11:36.866Z,6.10
2022-12-11T13:15:43.612Z,5.90
2022-12-11T13:19:45.427Z,5.80
2022-12-11T13:23:47.177Z,6.00
2022-12-11T13:27:49.870Z,6.20
2022-12-11T13:31:59.228Z,6.20
2022-12-11T13:36:16.751Z,6.20
2022-12-11T13:40:30.151Z,6.10
2022-12-11T13:44:38.948Z,5.80
2022-12-11T13:48:51.072Z,5.80
2022-12-11T13:52:57.756Z,5.60
2022-12-11T13:57:08.510Z,5.80
2022-12-11T14:01:21.596Z,5.90
2022-12-11T14:05:24.349Z,5.80
2022-12-11T14:09:27.610Z,5.60
2022-12-11T14:13:37.400Z,5.60
2022-12-11T14:17:47.079Z,5.80
2022-12-11T14:22:04.134Z,5.90
2022-12-11T14:26:19.786Z,5.90
2022-12-11T14:30:23.419Z,5.80
2022-12-11T14:34:44.453Z,5.80
2022-12-11T14:39:10.421Z,5.90
2022-12-11T14:43:20.006Z,5.80
2022-12-11T14:47:32.432Z,5.60
2022-12-11T14:51:39.635Z,5.60
2022-12-11T14:55:41.644Z,5.80
2022-12-11T14:59:46.919Z,5.80
2022-12-11T15:03:48.715Z,5.70
2022-12-11T15:08:15.573Z,5.70
2022-12-11T15:12:19.682Z,5.70
2022-12-11T15:16:24.320Z,5.60
2022-12-11T15:20:30.435Z,5.70
2022-12-11T15:24:38.804Z,5.80
2022-12-11T15:28:40.552Z,5.80
2022-12-11T15:32:42.237Z,5.80
2022-12-11T15:36:43.894Z,5.80
2022-12-11T15:40:45.592Z,5.50
2022-12-11T15:44:47.309Z,5.40
2022-12-11T15:48:50.019Z,5.50
2022-12-11T15:52:53.893Z,5.80
2022-12-11T15:56:55.611Z,5.90
2022-12-11T16:00:57.844Z,5.50
2022-12-11T16:04:59.479Z,5.60
2022-12-11T16:09:03.315Z,5.50
2022-12-11T16:13:05.016Z,5.30
2022-12-11T16:17:07.967Z,5.30
2022-12-11T16:21:09.657Z,5.00
2022-12-11T16:25:11.804Z,5.00
2022-12-11T16:29:13.723Z,5.00
2022-12-11T16:33:15.872Z,4.70
2022-12-11T16:37:17.558Z,4.40
2022-12-11T16:41:19.215Z,4.80
2022-12-11T16:45:25.157Z,5.10
2022-12-11T16:49:26.865Z,5.10
2022-12-11T16:53:28.580Z,4.80
2022-12-11T16:57:30.359Z,4.80
2022-12-11T17:01:32.319Z,5.00
2022-12-11T17:05:33.968Z,4.70
2022-12-11T17:09:36.043Z,4.80
2022-12-11T17:13:38.104Z,5.00
2022-12-11T17:17:39.976Z,4.70
2022-12-11T17:21:44.728Z,4.70
2022-12-11T17:25:49.030Z,4.80
2022-12-11T17:29:50.912Z,4.80
2022-12-11T17:33:54.058Z,4.60
2022-12-11T17:37:55.751Z,4.50
2022-12-11T17:41:57.455Z,4.10
2022-12-11T17:45:59.279Z,3.10
2022-12-11T17:50:00.947Z,3.70
2022-12-11T17:54:02.734Z,3.70
2022-12-11T17:58:05.501Z,4.00
2022-12-11T18:02:07.254Z,4.20
2022-12-11T18:06:12.007Z,3.80
2022-12-11T18:10:13.684Z,4.00
2022-12-11T18:14:17.634Z,4.10
2022-12-11T18:18:19.461Z,4.20
2022-12-11T18:22:21.269Z,4.20
2022-12-11T18:26:23.167Z,4.20
2022-12-11T18:30:25.728Z,4.20
2022-12-11T18:34:27.506Z,4.10
2022-12-11T18:38:29.187Z,4.20
2022-12-11T18:42:33.183Z,4.10
2022-12-11T18:46:35.516Z,4.10
2022-12-11T18:50:37.371Z,4.00
2022-12-11T18:54:39.273Z,3.40
2022-12-11T18:58:40.975Z,2.40
2022-12-11T19:02:42.899Z,2.40
2022-12-11T19:06:44.756Z,2.30
2022-12-11T19:10:47.408Z,2.10
2022-12-11T19:14:49.260Z,2.50
2022-12-11T19:18:51.084Z,2.80
2022-12-11T19:22:53.290Z,3.10
2022-12-11T19:26:54.958Z,3.30
2022-12-11T19:30:57.031Z,3.80
2022-12-11T19:34:58.848Z,4.00
2022-12-11T19:39:02.538Z,4.20
2022-12-11T19:43:05.999Z,4.20
2022-12-11T19:47:07.786Z,4.20
2022-12-11T19:51:13.450Z,4.10
2022-12-11T19:55:15.265Z,3.80
2022-12-11T19:59:17.693Z,4.00
2022-12-11T20:03:19.370Z,3.80
2022-12-11T20:07:26.116Z,3.80
2022-12-11T20:11:33.200Z,3.90
2022-12-11T20:15:38.602Z,3.70
2022-12-11T20:19:40.866Z,3.70
2022-12-11T20:23:43.057Z,3.80
2022-12-11T20:27:45.235Z,3.80
2022-12-11T20:31:49.489Z,3.90
2022-12-11T20:35:51.743Z,4.00
2022-12-11T20:39:53.456Z,4.00
2022-12-11T20:43:55.515Z,4.10
2022-12-11T20:47:57.241Z,4.30
2022-12-11T20:51:59.758Z,4.20
2022-12-11T20:56:02.475Z,4.20
2022-12-11T21:00:06.346Z,4.30
2022-12-11T21:04:08.100Z,4.40
2022-12-11T21:08:10.846Z,4.40
2022-12-11T21:12:12.631Z,4.30
2022-12-11T21:16:14.553Z,4.50
2022-12-11T21:20:16.540Z,4.60
2022-12-11T21:24:20.869Z,4.40
2022-12-11T21:28:22.634Z,4.60
2022-12-11T21:32:24.539Z,4.50
2022-12-11T21:36:26.336Z,4.30
2022-12-11T21:40:28.835Z,4.20
2022-12-11T21:48:52.572Z,4.40
2022-12-11T21:52:54.261Z,4.60
2022-12-11T21:56:55.919Z,4.50
2022-12-11T22:00:57.614Z,4.60
2022-12-11T22:05:02.688Z,4.70
2022-12-11T22:09:05.128Z,4.70
2022-12-11T22:13:06.866Z,5.00
2022-12-11T22:17:08.579Z,5.00
2022-12-11T22:21:10.633Z,5.00
2022-12-11T22:25:12.552Z,5.20
2022-12-11T22:29:14.368Z,4.80
2022-12-11T22:33:16.061Z,4.90
2022-12-11T22:37:17.861Z,4.90
2022-12-11T22:41:23.452Z,4.60
2022-12-11T22:45:25.340Z,4.60
2022-12-11T22:49:27.063Z,4.70
2022-12-11T22:53:28.679Z,4.70
2022-12-11T22:57:30.619Z,4.20
2022-12-11T23:01:32.261Z,4.20
2022-12-11T23:05:33.936Z,4.30
2022-12-11T23:09:35.793Z,4.20
2022-12-11T23:13:37.501Z,3.90
2022-12-11T23:17:39.554Z,3.40
2022-12-11T23:21:41.577Z,3.60
2022-12-11T23:25:43.227Z,3.70
2022-12-11T23:29:45.721Z,3.70
2022-12-11T23:33:47.537Z,3.60
2022-12-11T23:37:49.259Z,3.10
2022-12-11T23:41:50.979Z,3.40
2022-12-11T23:45:52.780Z,3.80
2022-12-11T23:49:54.464Z,3.70
2022-12-11T23:53:56.428Z,3.70
2022-12-11T23:57:58.187Z,3.70
